createdAt,value
2022-10-13T00:01:14.652Z,164.70
2022-10-13T00:03:46.122Z,150.63
2022-10-13T00:06:24.983Z,157.73
2022-10-13T00:08:53.894Z,159.67
2022-10-13T00:11:24.662Z,174.07
2022-10-13T00:13:56.037Z,160.93
2022-10-13T00:16:24.511Z,238.30
2022-10-13T00:18:53.393Z,216.80
2022-10-13T00:21:26.136Z,269.23
2022-10-13T00:23:55.449Z,181.00
2022-10-13T00:26:25.286Z,163.53
2022-10-13T00:28:54.899Z,159.60
2022-10-13T00:31:24.857Z,239.30
2022-10-13T00:33:53.899Z,222.47
2022-10-13T00:36:24.475Z,155.57
2022-10-13T00:38:53.438Z,184.83
2022-10-13T00:41:23.148Z,205.27
2022-10-13T00:44:00.399Z,207.07
2022-10-13T00:46:30.381Z,173.97
2022-10-13T00:49:01.968Z,154.63
2022-10-13T00:51:35.874Z,198.27
2022-10-13T00:54:06.768Z,185.10
2022-10-13T00:56:37.521Z,158.90
2022-10-13T00:59:13.474Z,189.03
2022-10-13T01:01:42.497Z,159.37
2022-10-13T01:04:11.611Z,162.93
2022-10-13T01:06:41.524Z,138.27
2022-10-13T01:09:09.745Z,161.47
2022-10-13T01:11:57.227Z,149.63
2022-10-13T01:14:31.344Z,151.10
2022-10-13T01:17:07.054Z,165.20
2022-10-13T01:20:05.661Z,282.73
2022-10-13T01:22:46.788Z,285.63
2022-10-13T01:25:35.132Z,195.33
2022-10-13T01:28:28.363Z,283.80
2022-10-13T01:31:03.039Z,291.43
2022-10-13T01:33:40.016Z,246.90
2022-10-13T01:36:18.525Z,291.77
2022-10-13T01:38:52.395Z,225.50
2022-10-13T01:41:26.836Z,197.63
2022-10-13T01:44:03.490Z,192.13
2022-10-13T01:46:36.715Z,181.97
2022-10-13T01:49:08.607Z,207.90
2022-10-13T01:51:37.614Z,177.17
2022-10-13T01:54:05.809Z,161.83
2022-10-13T01:56:34.036Z,191.23
2022-10-13T01:59:06.751Z,139.67
2022-10-13T02:01:49.403Z,159.47
2022-10-13T02:04:31.182Z,170.83
2022-10-13T02:09:44.735Z,149.97
2022-10-13T02:12:25.590Z,179.03
2022-10-13T02:14:56.747Z,159.47
2022-10-13T02:17:27.439Z,174.23
2022-10-13T02:19:56.895Z,148.13
2022-10-13T02:22:30.676Z,147.00
2022-10-13T02:25:00.658Z,151.97
2022-10-13T02:27:29.646Z,150.23
2022-10-13T02:29:59.017Z,142.90
2022-10-13T02:32:32.255Z,147.83
2022-10-13T02:35:01.134Z,161.47
2022-10-13T02:37:29.291Z,156.43
2022-10-13T02:39:57.490Z,177.80
2022-10-13T02:42:25.670Z,166.13
2022-10-13T02:44:56.961Z,159.83
2022-10-13T02:47:25.254Z,145.20
2022-10-13T02:49:54.926Z,163.70
2022-10-13T02:52:23.298Z,163.13
2022-10-13T02:54:51.756Z,152.43
2022-10-13T02:57:20.280Z,151.07
2022-10-13T02:59:49.357Z,170.50
2022-10-13T03:02:18.714Z,151.43
2022-10-13T03:04:47.454Z,156.83
2022-10-13T03:07:16.961Z,168.30
2022-10-13T03:09:45.063Z,151.53
2022-10-13T03:12:13.310Z,164.30
2022-10-13T03:14:41.429Z,192.43
2022-10-13T03:17:13.260Z,201.73
2022-10-13T03:19:41.752Z,180.97
2022-10-13T03:22:15.451Z,240.93
2022-10-13T03:24:45.109Z,204.63
2022-10-13T03:27:13.618Z,175.33
2022-10-13T03:29:41.747Z,172.27
2022-10-13T03:32:10.286Z,151.10
2022-10-13T03:34:38.373Z,208.37
2022-10-13T03:37:06.489Z,167.00
2022-10-13T03:39:40.656Z,163.13
2022-10-13T03:42:11.718Z,189.23
2022-10-13T03:44:40.796Z,220.50
2022-10-13T03:47:09.031Z,174.30
2022-10-13T03:49:38.569Z,201.60
2022-10-13T03:52:06.798Z,183.70
2022-10-13T03:54:35.185Z,202.13
2022-10-13T03:57:03.993Z,182.57
2022-10-13T03:59:36.799Z,154.30
2022-10-13T04:02:05.706Z,185.43
2022-10-13T04:04:35.226Z,211.33
2022-10-13T04:07:03.382Z,145.97
2022-10-13T04:09:31.703Z,184.73
2022-10-13T04:12:00.360Z,193.33
2022-10-13T04:14:28.611Z,167.27
2022-10-13T04:17:03.996Z,158.90
2022-10-13T04:19:32.162Z,150.27
2022-10-13T04:22:07.154Z,162.17
2022-10-13T04:24:35.939Z,165.37
2022-10-13T04:27:04.126Z,167.27
2022-10-13T04:29:32.322Z,194.33
2022-10-13T04:32:00.606Z,212.30
2022-10-13T04:34:30.118Z,216.30
2022-10-13T04:36:58.557Z,188.30
2022-10-13T04:39:26.632Z,242.70
2022-10-13T04:41:55.789Z,216.07
2022-10-13T04:44:24.119Z,192.57
2022-10-13T04:46:52.235Z,160.37
2022-10-13T04:49:20.638Z,149.87
2022-10-13T04:51:50.083Z,207.03
2022-10-13T04:54:18.244Z,167.37
2022-10-13T04:56:46.934Z,190.73
2022-10-13T04:59:15.160Z,156.93
2022-10-13T05:01:43.439Z,140.93
2022-10-13T05:04:14.735Z,183.93
2022-10-13T05:09:33.726Z,170.10
2022-10-13T05:12:02.038Z,214.23
2022-10-13T05:14:31.120Z,186.87
2022-10-13T05:17:02.035Z,146.50
2022-10-13T05:19:30.660Z,162.27
2022-10-13T05:21:59.402Z,168.20
2022-10-13T05:24:36.571Z,162.10
2022-10-13T05:27:07.379Z,164.37
2022-10-13T05:29:35.643Z,161.33
2022-10-13T05:32:04.400Z,175.03
2022-10-13T05:34:33.518Z,149.30
2022-10-13T05:37:02.040Z,173.80
2022-10-13T05:39:30.513Z,168.03
2022-10-13T05:41:58.622Z,171.67
2022-10-13T05:44:28.281Z,172.67
2022-10-13T05:46:56.802Z,182.10
2022-10-13T05:49:25.433Z,191.23
2022-10-13T05:51:57.563Z,175.10
2022-10-13T05:54:30.974Z,180.17
2022-10-13T05:57:03.965Z,178.33
2022-10-13T05:59:37.319Z,156.60
2022-10-13T06:02:07.432Z,158.17
2022-10-13T06:04:40.327Z,158.93
2022-10-13T06:07:10.057Z,169.07
2022-10-13T06:09:40.697Z,158.93
2022-10-13T06:12:10.157Z,145.23
2022-10-13T06:14:39.698Z,161.07
2022-10-13T06:17:08.395Z,161.63
2022-10-13T06:19:36.574Z,162.40
2022-10-13T06:22:09.037Z,158.77
2022-10-13T06:24:37.244Z,148.80
2022-10-13T06:27:08.497Z,136.53
2022-10-13T06:29:39.011Z,169.87
2022-10-13T06:32:07.786Z,145.07
2022-10-13T06:34:36.019Z,143.40
2022-10-13T06:37:04.092Z,156.73
2022-10-13T06:39:32.234Z,140.57
2022-10-13T06:42:03.558Z,150.13
2022-10-13T06:44:32.718Z,139.67
2022-10-13T06:47:05.947Z,139.47
2022-10-13T06:49:34.360Z,134.60
2022-10-13T06:52:02.626Z,139.13
2022-10-13T06:54:30.777Z,138.53
2022-10-13T06:56:58.916Z,132.83
2022-10-13T06:59:27.816Z,127.73
2022-10-13T07:01:55.980Z,133.00
2022-10-13T07:04:28.019Z,130.33
2022-10-13T07:06:59.192Z,135.20
2022-10-13T07:09:27.725Z,139.73
2022-10-13T07:11:55.836Z,137.33
2022-10-13T07:14:24.059Z,133.23
2022-10-13T07:16:52.431Z,127.50
2022-10-13T07:19:20.637Z,137.50
2022-10-13T07:21:50.245Z,126.13
2022-10-13T07:24:18.506Z,137.67
2022-10-13T07:26:46.694Z,133.03
2022-10-13T07:29:14.984Z,152.23
2022-10-13T07:31:44.733Z,124.17
2022-10-13T07:34:13.642Z,141.93
2022-10-13T07:36:41.897Z,130.27
2022-10-13T07:39:11.407Z,134.83
2022-10-13T07:41:39.509Z,137.80
2022-10-13T07:44:07.911Z,150.00
2022-10-13T07:46:36.043Z,134.70
2022-10-13T07:49:04.292Z,131.30
2022-10-13T07:51:32.389Z,130.93
2022-10-13T07:54:00.529Z,135.37
2022-10-13T07:56:29.998Z,133.53
2022-10-13T07:58:58.178Z,141.80
2022-10-13T08:01:26.451Z,138.13
2022-10-13T08:03:56.694Z,142.50
2022-10-13T08:06:24.888Z,144.47
2022-10-13T08:08:55.457Z,134.57
2022-10-13T08:11:24.650Z,150.37
2022-10-13T08:13:55.900Z,162.97
2022-10-13T08:16:24.539Z,137.07
2022-10-13T08:18:52.999Z,152.27
2022-10-13T08:24:13.437Z,147.17
2022-10-13T08:26:42.115Z,147.90
2022-10-13T08:29:28.129Z,135.13
2022-10-13T08:31:56.793Z,180.60
2022-10-13T08:34:25.818Z,185.37
2022-10-13T08:36:56.370Z,231.43
2022-10-13T08:39:25.572Z,457.73
2022-10-13T08:41:55.140Z,592.77
2022-10-13T08:45:06.374Z,552.70
2022-10-13T08:47:35.898Z,676.83
2022-10-13T08:50:11.654Z,591.63
2022-10-13T08:52:50.302Z,739.10
2022-10-13T08:55:31.619Z,776.00
2022-10-13T08:58:01.810Z,799.87
2022-10-13T09:00:31.578Z,766.27
2022-10-13T09:03:25.390Z,667.30
2022-10-13T09:06:03.784Z,738.70
2022-10-13T09:08:39.199Z,721.23
2022-10-13T09:11:07.712Z,655.30
2022-10-13T09:13:35.946Z,753.00
2022-10-13T09:16:05.891Z,697.30
2022-10-13T09:18:34.603Z,637.80
2022-10-13T09:21:26.663Z,742.53
2022-10-13T09:24:08.130Z,901.97
2022-10-13T09:26:39.412Z,756.57
2022-10-13T09:29:10.275Z,838.77
2022-10-13T09:31:39.803Z,891.10
2022-10-13T09:34:24.165Z,775.23
2022-10-13T09:37:00.258Z,683.00
2022-10-13T09:39:29.426Z,421.37
2022-10-13T09:42:21.300Z,434.53
2022-10-13T09:44:58.066Z,603.63
2022-10-13T09:47:33.025Z,597.17
2022-10-13T09:50:07.336Z,528.53
2022-10-13T09:52:36.155Z,543.40
2022-10-13T09:55:27.586Z,841.80
2022-10-13T09:58:05.787Z,822.77
2022-10-13T10:00:34.696Z,733.13
2022-10-13T10:03:09.159Z,672.83
2022-10-13T10:05:45.810Z,987.37
2022-10-13T10:08:28.776Z,1019.20
2022-10-13T10:11:04.338Z,1221.50
2022-10-13T10:13:32.540Z,1165.93
2022-10-13T10:16:07.789Z,1193.53
2022-10-13T10:18:44.089Z,1191.50
2022-10-13T10:21:25.163Z,1248.63
2022-10-13T10:24:14.501Z,410.33
2022-10-13T10:26:52.171Z,302.60
2022-10-13T10:29:30.422Z,304.87
2022-10-13T10:32:06.385Z,341.37
2022-10-13T10:34:46.670Z,363.70
2022-10-13T10:37:22.740Z,325.63
2022-10-13T10:40:02.606Z,291.53
2022-10-13T10:42:55.498Z,221.60
2022-10-13T10:45:27.342Z,260.83
2022-10-13T10:48:00.329Z,254.23
2022-10-13T10:50:31.254Z,296.00
2022-10-13T10:53:03.549Z,287.43
2022-10-13T10:55:36.546Z,288.13
2022-10-13T10:58:22.399Z,366.83
2022-10-13T11:01:00.125Z,386.00
2022-10-13T11:03:41.296Z,378.20
2022-10-13T11:06:32.898Z,359.47
2022-10-13T11:09:01.808Z,450.37
2022-10-13T11:11:37.822Z,452.57
2022-10-13T11:14:30.103Z,436.60
2022-10-13T11:17:20.254Z,397.17
2022-10-13T11:19:49.443Z,457.87
2022-10-13T11:22:24.245Z,309.00
2022-10-13T11:25:01.679Z,337.63
2022-10-13T11:27:44.252Z,441.27
2022-10-13T11:30:47.195Z,440.27
2022-10-13T11:33:36.622Z,425.70
2022-10-13T11:36:31.270Z,406.70
2022-10-13T11:39:12.677Z,402.13
2022-10-13T11:41:52.243Z,441.87
2022-10-13T11:47:08.164Z,401.87
2022-10-13T11:50:01.456Z,631.67
2022-10-13T11:52:58.664Z,393.57
2022-10-13T11:55:39.903Z,528.87
2022-10-13T11:58:10.016Z,657.30
2022-10-13T12:00:38.365Z,792.93
2022-10-13T12:03:06.814Z,713.30
2022-10-13T12:05:35.925Z,746.53
2022-10-13T12:08:05.668Z,689.50
2022-10-13T12:10:37.934Z,539.57
2022-10-13T12:13:08.902Z,700.03
2022-10-13T12:15:38.936Z,803.60
2022-10-13T12:18:23.504Z,789.43
2022-10-13T12:20:56.681Z,923.47
2022-10-13T12:23:25.485Z,988.27
2022-10-13T12:25:58.446Z,965.70
2022-10-13T12:28:29.110Z,820.67
2022-10-13T12:30:59.811Z,817.90
2022-10-13T12:33:31.957Z,748.90
2022-10-13T12:36:14.375Z,845.40
2022-10-13T12:38:48.161Z,821.87
2022-10-13T12:41:25.972Z,834.97
2022-10-13T12:43:55.597Z,907.23
2022-10-13T12:46:36.726Z,922.33
2022-10-13T12:49:06.483Z,963.77
2022-10-13T12:51:37.780Z,963.53
2022-10-13T12:54:10.456Z,1053.97
2022-10-13T12:56:43.543Z,1044.93
2022-10-13T12:59:17.258Z,998.37
2022-10-13T13:01:55.636Z,1037.33
2022-10-13T13:04:42.239Z,995.73
2022-10-13T13:07:30.659Z,975.60
2022-10-13T13:10:11.688Z,1085.43
2022-10-13T13:12:41.631Z,1095.77
2022-10-13T13:15:35.288Z,1146.00
2022-10-13T13:18:31.454Z,1295.33
2022-10-13T13:21:01.825Z,1170.00
2022-10-13T13:23:34.292Z,1178.07
2022-10-13T13:26:12.182Z,1173.13
2022-10-13T13:28:45.778Z,1172.10
2022-10-13T13:31:16.099Z,1208.93
2022-10-13T13:33:44.295Z,1098.03
2022-10-13T13:36:16.931Z,1117.33
2022-10-13T13:38:47.805Z,1074.77
2022-10-13T13:41:16.956Z,1177.93
2022-10-13T13:43:47.071Z,1288.47
2022-10-13T13:46:18.880Z,1057.30
2022-10-13T13:48:47.092Z,1122.40
2022-10-13T13:51:15.320Z,1113.00
2022-10-13T13:53:46.101Z,1186.87
2022-10-13T13:56:15.403Z,1189.70
2022-10-13T13:58:43.982Z,1242.97
2022-10-13T14:01:14.379Z,1115.67
2022-10-13T14:03:42.749Z,1171.80
2022-10-13T14:06:18.021Z,1194.47
2022-10-13T14:08:47.220Z,1154.20
2022-10-13T14:11:20.736Z,1115.80
2022-10-13T14:13:51.186Z,1170.53
2022-10-13T14:16:35.322Z,1207.80
2022-10-13T14:19:13.623Z,1172.47
2022-10-13T14:21:45.553Z,1192.50
2022-10-13T14:24:21.789Z,1427.83
2022-10-13T14:26:53.956Z,1316.10
2022-10-13T14:29:22.251Z,1210.33
2022-10-13T14:31:55.281Z,1205.53
2022-10-13T14:34:23.452Z,1266.70
2022-10-13T14:36:55.796Z,1236.83
2022-10-13T14:39:24.065Z,1387.67
2022-10-13T14:41:54.144Z,1349.43
2022-10-13T14:44:31.667Z,1332.63
2022-10-13T14:47:11.856Z,1369.40
2022-10-13T14:49:44.623Z,1438.07
2022-10-13T14:52:12.891Z,1510.20
2022-10-13T14:54:45.027Z,1336.90
2022-10-13T14:57:16.574Z,1348.23
2022-10-13T14:59:47.341Z,1276.70
2022-10-13T15:02:18.133Z,1349.47
2022-10-13T15:04:54.178Z,1343.37
2022-10-13T15:07:31.449Z,1230.57
2022-10-13T15:10:06.135Z,1200.53
2022-10-13T15:12:36.630Z,1125.07
2022-10-13T15:15:06.031Z,1101.93
2022-10-13T15:17:40.324Z,1161.23
2022-10-13T15:20:17.967Z,1189.60
2022-10-13T15:22:49.143Z,1051.43
2022-10-13T15:25:19.526Z,1128.37
2022-10-13T15:27:52.668Z,1063.70
2022-10-13T15:30:25.708Z,1076.40
2022-10-13T15:32:55.167Z,1015.87
2022-10-13T15:35:23.238Z,880.03
2022-10-13T15:37:51.430Z,977.20
2022-10-13T15:40:19.565Z,935.40
2022-10-13T15:42:47.895Z,624.80
2022-10-13T15:45:16.258Z,456.00
2022-10-13T15:47:44.310Z,333.60
2022-10-13T15:50:39.432Z,277.50
2022-10-13T15:53:07.623Z,339.53
2022-10-13T15:55:35.824Z,316.83
2022-10-13T15:58:04.024Z,288.67
2022-10-13T16:00:32.191Z,262.93
2022-10-13T16:03:00.582Z,238.67
2022-10-13T16:05:28.687Z,245.67
2022-10-13T16:07:58.177Z,231.60
2022-10-13T16:10:27.341Z,218.03
2022-10-13T16:12:55.563Z,199.33
2022-10-13T16:15:23.713Z,213.60
2022-10-13T16:17:53.253Z,229.13
2022-10-13T16:20:21.396Z,187.63
2022-10-13T16:22:49.349Z,218.73
2022-10-13T16:25:18.851Z,262.67
2022-10-13T16:27:47.007Z,226.43
2022-10-13T16:30:15.181Z,205.30
2022-10-13T16:32:43.298Z,198.90
2022-10-13T16:35:11.776Z,210.83
2022-10-13T16:37:39.945Z,228.10
2022-10-13T16:40:09.383Z,262.47
2022-10-13T16:42:38.954Z,245.47
2022-10-13T16:45:08.394Z,273.87
2022-10-13T16:47:36.523Z,243.07
2022-10-13T16:50:09.257Z,231.13
2022-10-13T16:52:37.517Z,227.47
2022-10-13T16:55:06.683Z,234.87
2022-10-13T16:57:34.747Z,241.27
2022-10-13T17:00:12.689Z,268.10
2022-10-13T17:02:44.401Z,236.83
2022-10-13T17:05:26.398Z,234.30
2022-10-13T17:08:03.731Z,259.43
2022-10-13T17:10:31.964Z,261.60
2022-10-13T17:16:58.040Z,198.37
2022-10-13T17:19:26.894Z,273.23
2022-10-13T17:21:55.041Z,255.50
2022-10-13T17:24:23.438Z,256.13
2022-10-13T17:26:51.586Z,237.93
2022-10-13T17:29:19.743Z,255.43
2022-10-13T17:31:48.125Z,239.97
2022-10-13T17:34:17.867Z,247.40
2022-10-13T17:36:45.928Z,244.50
2022-10-13T17:39:14.222Z,221.40
2022-10-13T17:41:43.156Z,215.73
2022-10-13T17:44:11.695Z,207.77
2022-10-13T17:46:40.102Z,227.27
2022-10-13T17:49:10.795Z,208.73
2022-10-13T17:51:40.800Z,196.83
2022-10-13T17:54:13.071Z,183.23
2022-10-13T17:56:45.160Z,239.13
2022-10-13T17:59:13.534Z,186.33
2022-10-13T18:01:42.507Z,200.17
2022-10-13T18:04:13.264Z,206.73
2022-10-13T18:06:44.632Z,211.00
2022-10-13T18:09:17.068Z,201.87
2022-10-13T18:11:50.271Z,206.17
2022-10-13T18:14:19.614Z,231.03
2022-10-13T18:16:50.140Z,226.30
2022-10-13T18:19:18.560Z,238.97
2022-10-13T18:21:48.866Z,210.10
2022-10-13T18:24:17.268Z,222.30
2022-10-13T18:26:45.886Z,196.63
2022-10-13T18:29:14.341Z,206.70
2022-10-13T18:31:44.409Z,214.50
2022-10-13T18:34:15.173Z,197.80
2022-10-13T18:36:47.157Z,235.20
2022-10-13T18:39:18.760Z,229.97
2022-10-13T18:41:51.209Z,209.27
2022-10-13T18:44:19.973Z,206.33
2022-10-13T18:46:50.587Z,202.80
2022-10-13T18:49:21.428Z,183.77
2022-10-13T18:51:51.825Z,174.43
2022-10-13T18:54:21.301Z,185.37
2022-10-13T18:56:49.901Z,193.77
2022-10-13T18:59:18.189Z,171.90
2022-10-13T19:01:46.570Z,193.47
2022-10-13T19:04:16.681Z,209.13
2022-10-13T19:06:46.375Z,199.70
2022-10-13T19:09:17.510Z,194.73
2022-10-13T19:11:47.257Z,223.57
2022-10-13T19:14:17.497Z,216.30
2022-10-13T19:16:45.713Z,221.27
2022-10-13T19:19:14.440Z,201.37
2022-10-13T19:21:42.979Z,201.03
2022-10-13T19:24:12.372Z,188.20
2022-10-13T19:26:40.640Z,217.50
2022-10-13T19:29:12.516Z,200.23
2022-10-13T19:31:42.285Z,194.83
2022-10-13T19:34:12.311Z,204.57
2022-10-13T19:36:43.331Z,191.27
2022-10-13T19:39:16.102Z,196.27
2022-10-13T19:41:44.476Z,219.30
2022-10-13T19:44:14.504Z,174.83
2022-10-13T19:46:45.130Z,188.77
2022-10-13T19:49:16.550Z,190.80
2022-10-13T19:51:49.160Z,191.83
2022-10-13T19:54:18.702Z,182.63
2022-10-13T19:56:48.387Z,197.30
2022-10-13T19:59:20.599Z,194.77
2022-10-13T20:01:48.919Z,182.00
2022-10-13T20:04:20.477Z,189.00
2022-10-13T20:06:49.636Z,173.50
2022-10-13T20:09:18.236Z,187.47
2022-10-13T20:11:47.782Z,168.47
2022-10-13T20:14:18.559Z,172.13
2022-10-13T20:16:47.316Z,177.97
2022-10-13T20:19:19.352Z,162.93
2022-10-13T20:21:51.561Z,167.43
2022-10-13T20:24:20.540Z,167.37
2022-10-13T20:26:50.129Z,159.53
2022-10-13T20:29:24.753Z,163.63
2022-10-13T20:31:53.037Z,181.30
2022-10-13T20:34:21.632Z,176.40
2022-10-13T20:36:51.113Z,209.40
2022-10-13T20:39:19.366Z,181.43
2022-10-13T20:41:47.554Z,163.57
2022-10-13T20:44:15.757Z,162.20
2022-10-13T20:46:45.392Z,154.57
2022-10-13T20:49:13.826Z,147.63
2022-10-13T20:51:42.903Z,159.87
2022-10-13T20:54:12.020Z,150.97
2022-10-13T20:56:40.298Z,178.30
2022-10-13T20:59:10.807Z,161.13
2022-10-13T21:01:39.762Z,183.37
2022-10-13T21:04:09.240Z,157.53
2022-10-13T21:06:37.359Z,168.77
2022-10-13T21:09:06.308Z,158.00
2022-10-13T21:11:34.826Z,170.70
2022-10-13T21:14:06.485Z,176.63
2022-10-13T21:16:35.144Z,189.90
2022-10-13T21:19:05.837Z,177.87
2022-10-13T21:21:36.908Z,198.23
2022-10-13T21:24:08.051Z,192.23
2022-10-13T21:26:36.372Z,193.03
2022-10-13T21:29:05.157Z,159.77
2022-10-13T21:31:35.512Z,167.57
2022-10-13T21:34:03.903Z,170.07
2022-10-13T21:36:33.790Z,181.00
2022-10-13T21:39:05.353Z,176.87
2022-10-13T21:41:34.652Z,180.57
2022-10-13T21:44:03.328Z,143.37
2022-10-13T21:46:35.815Z,150.70
2022-10-13T21:49:06.271Z,152.27
2022-10-13T21:51:37.438Z,162.43
2022-10-13T21:54:10.071Z,179.20
2022-10-13T21:56:39.612Z,168.90
2022-10-13T21:59:08.459Z,159.27
2022-10-13T22:01:36.843Z,151.67
2022-10-13T22:04:15.362Z,152.20
2022-10-13T22:06:44.330Z,150.07
2022-10-13T22:09:14.403Z,161.57
2022-10-13T22:11:43.764Z,151.50
2022-10-13T22:14:12.082Z,165.07
2022-10-13T22:16:41.883Z,169.47
2022-10-13T22:19:10.593Z,178.90
2022-10-13T22:21:42.875Z,225.97
2022-10-13T22:24:15.382Z,213.60
2022-10-13T22:26:44.880Z,191.30
2022-10-13T22:29:15.892Z,178.23
2022-10-13T22:31:44.909Z,235.73
2022-10-13T22:34:13.881Z,207.30
2022-10-13T22:36:44.816Z,187.57
2022-10-13T22:39:15.604Z,198.43
2022-10-13T22:41:44.506Z,185.83
2022-10-13T22:44:13.448Z,214.23
2022-10-13T22:46:42.092Z,214.07
2022-10-13T22:49:14.718Z,215.43
2022-10-13T22:51:42.958Z,245.43
2022-10-13T22:54:11.591Z,279.50
2022-10-13T22:56:42.344Z,244.53
2022-10-13T22:59:10.599Z,259.87
2022-10-13T23:01:38.809Z,277.93
2022-10-13T23:04:07.413Z,302.73
2022-10-13T23:06:36.331Z,332.50
2022-10-13T23:09:10.236Z,273.70
2022-10-13T23:11:38.594Z,267.63
2022-10-13T23:14:09.455Z,308.63
2022-10-13T23:16:37.597Z,326.93
2022-10-13T23:19:05.823Z,339.67
2022-10-13T23:21:34.048Z,362.57
2022-10-13T23:24:04.440Z,314.17
2022-10-13T23:26:33.457Z,340.23
2022-10-13T23:29:01.755Z,324.33
2022-10-13T23:31:31.877Z,356.40
2022-10-13T23:34:00.078Z,362.93
2022-10-13T23:36:31.197Z,408.97
2022-10-13T23:39:01.872Z,331.20
2022-10-13T23:41:30.377Z,353.17
2022-10-13T23:43:58.941Z,373.93
2022-10-13T23:46:27.725Z,378.23
2022-10-13T23:48:57.752Z,407.87
2022-10-13T23:51:26.847Z,405.47
2022-10-13T23:53:55.569Z,377.43
2022-10-13T23:56:24.251Z,390.30
2022-10-13T23:58:52.474Z,424.13
